Terminal Aerodrome Forecast
Issued by NWS Detroit/Pontiac, MI

Home | Current Version | Previous Version | Text Only | Print | Product List | Glossary On
Versions: 1 2 3 4 5 6 7 8 9 10 11 12 13 14 15 16 17 18 19
000
FTUS43 KDTX 301100
TAFFNT
TAF
KFNT 301137Z 3012/3112 27005KT P6SM SCT030 BKN100
     FM301600 32007KT P6SM SCT050 BKN250
     FM302300 27005KT P6SM FEW050 SCT250
     FM310800 24005KT P6SM BKN100=

USA.gov is the U.S. government's official web portal to all federal, state and local government web resources and services.